Time;durP1;ratioP1;P1;durP2;ratioP2;P2;SDS_P1;SDS_P2;PMS_P1;PMS_P2;Temp;Humidity;BMP_temperature;BMP_pressure;BME280_temperature;BME280_humidity;BME280_pressure;Samples;Min_cycle;Max_cycle;Signal;HPM_P1;HPM_P2
2022/12/07 00:01:21;;;;;;;19.70;15.47;;;4.60;99.90;;;;;;5093486;28;20941;-77
2022/12/07 00:03:51;;;;;;;19.93;15.87;;;4.60;99.90;;;;;;5094658;28;20475;-76
2022/12/07 00:06:22;;;;;;;21.17;15.63;;;4.60;99.90;;;;;;5094750;28;20753;-76
2022/12/07 00:08:50;;;;;;;18.83;15.13;;;4.50;99.90;;;;;;5093186;28;20455;-76
2022/12/07 00:11:20;;;;;;;19.33;15.53;;;4.50;99.90;;;;;;5093138;28;20465;-76
2022/12/07 00:13:48;;;;;;;19.03;16.17;;;4.50;99.90;;;;;;5093242;28;21065;-76
2022/12/07 00:16:18;;;;;;;19.17;16.43;;;4.50;99.90;;;;;;5095608;28;20440;-76
2022/12/07 00:18:47;;;;;;;25.53;16.70;;;4.50;99.90;;;;;;5096662;28;20769;-76
2022/12/07 00:21:16;;;;;;;20.03;15.73;;;4.50;99.90;;;;;;5095419;28;20524;-76
2022/12/07 00:23:48;;;;;;;19.00;16.33;;;4.40;99.90;;;;;;5096757;28;20823;-76
2022/12/07 00:26:18;;;;;;;22.13;16.50;;;4.50;99.90;;;;;;5096953;28;20509;-76
2022/12/07 00:28:47;;;;;;;19.23;16.57;;;4.40;99.90;;;;;;5096387;28;20464;-76
2022/12/07 00:31:17;;;;;;;23.10;15.43;;;4.40;99.90;;;;;;5095123;28;20444;-76
2022/12/07 00:33:46;;;;;;;22.30;15.90;;;4.40;99.90;;;;;;5095109;28;20495;-76
2022/12/07 00:36:16;;;;;;;19.70;15.23;;;4.40;99.90;;;;;;5096583;28;20788;-77
2022/12/07 00:38:53;;;;;;;19.23;16.07;;;4.40;99.90;;;;;;5096654;28;20423;-76
2022/12/07 00:41:23;;;;;;;21.43;15.60;;;4.40;99.90;;;;;;5111093;28;20845;-76
2022/12/07 00:43:51;;;;;;;18.10;14.80;;;4.50;99.90;;;;;;5115311;28;20481;-76
2022/12/07 00:46:21;;;;;;;20.90;14.97;;;4.40;99.90;;;;;;5116820;28;20444;-76
2022/12/07 00:48:50;;;;;;;19.20;15.03;;;4.40;99.90;;;;;;5116397;28;21058;-76
2022/12/07 00:51:20;;;;;;;19.70;15.23;;;4.40;99.90;;;;;;5116528;28;20928;-76
2022/12/07 00:53:48;;;;;;;22.00;13.40;;;4.40;99.90;;;;;;5115152;28;20474;-76
2022/12/07 00:56:22;;;;;;;16.97;12.10;;;4.40;99.90;;;;;;5115111;28;20504;-76
2022/12/07 00:58:55;;;;;;;20.00;12.70;;;4.50;99.90;;;;;;5114998;28;20442;-77
2022/12/07 01:01:24;;;;;;;17.30;12.00;;;4.50;99.90;;;;;;5115064;28;20432;-76
2022/12/07 01:03:53;;;;;;;11.70;9.80;;;4.50;99.90;;;;;;5114886;28;20820;-76
2022/12/07 01:06:23;;;;;;;15.40;11.53;;;4.50;99.90;;;;;;5116494;28;20442;-76
2022/12/07 01:08:51;;;;;;;15.83;10.20;;;4.50;99.90;;;;;;5116647;28;20455;-76
2022/12/07 01:11:23;;;;;;;16.43;9.73;;;4.40;99.90;;;;;;5114843;28;20444;-76
2022/12/07 01:13:52;;;;;;;17.70;9.90;;;4.40;99.90;;;;;;5114736;28;20876;-76
2022/12/07 01:16:21;;;;;;;13.30;8.50;;;4.40;99.90;;;;;;5116242;28;20435;-76
2022/12/07 01:18:51;;;;;;;12.53;8.40;;;4.40;99.90;;;;;;5114703;28;20944;-76
2022/12/07 01:21:21;;;;;;;14.30;10.37;;;4.50;99.90;;;;;;5116192;28;20965;-76
2022/12/07 01:23:50;;;;;;;15.27;9.40;;;4.40;99.90;;;;;;5114577;28;20471;-76
2022/12/07 01:26:21;;;;;;;14.03;9.27;;;4.40;99.90;;;;;;5115640;28;20439;-76
2022/12/07 01:28:50;;;;;;;12.10;8.40;;;4.50;99.90;;;;;;5115733;28;20455;-76
2022/12/07 01:31:20;;;;;;;14.90;8.90;;;4.50;99.90;;;;;;5097777;28;20448;-76
2022/12/07 01:33:52;;;;;;;11.70;7.80;;;4.50;99.90;;;;;;5093929;28;20555;-77
2022/12/07 01:36:22;;;;;;;10.53;7.93;;;4.50;99.90;;;;;;5095146;28;20424;-77
2022/12/07 01:38:52;;;;;;;14.30;8.83;;;4.50;99.90;;;;;;5093931;28;20925;-76
2022/12/07 01:41:22;;;;;;;12.83;8.27;;;4.50;99.90;;;;;;5095295;28;20543;-76
2022/12/07 01:44:21;;;;;;;15.27;8.07;;;4.50;99.90;;;;;;5093946;28;20879;-76
2022/12/07 01:46:51;;;;;;;11.60;8.50;;;4.40;99.90;;;;;;5094981;28;20937;-76
2022/12/07 01:49:26;;;;;;;13.40;8.93;;;4.40;99.90;;;;;;5095365;28;20497;-76
2022/12/07 01:51:59;;;;;;;12.27;8.07;;;4.40;99.90;;;;;;5093576;28;20952;-76
2022/12/07 01:54:27;;;;;;;11.20;8.83;;;4.40;99.90;;;;;;5095069;28;20456;-76
2022/12/07 01:56:58;;;;;;;14.23;8.47;;;4.30;99.90;;;;;;5094765;28;20929;-76
2022/12/07 01:59:27;;;;;;;15.03;9.30;;;4.30;99.90;;;;;;5094832;28;20451;-76
2022/12/07 02:01:56;;;;;;;12.77;8.77;;;4.30;99.90;;;;;;5093494;28;20530;-76
2022/12/07 02:04:25;;;;;;;14.43;9.77;;;4.30;99.90;;;;;;5093257;28;20467;-76
2022/12/07 02:06:54;;;;;;;13.87;9.80;;;4.30;99.90;;;;;;5094614;28;21026;-76
2022/12/07 02:09:25;;;;;;;13.23;9.17;;;4.20;99.90;;;;;;5094848;28;20980;-77
2022/12/07 02:11:54;;;;;;;12.80;8.37;;;4.20;99.90;;;;;;5094518;28;20440;-77
2022/12/07 02:14:24;;;;;;;13.10;9.80;;;4.20;99.90;;;;;;5093201;28;20552;-76
2022/12/07 02:17:08;;;;;;;18.90;9.83;;;4.20;99.90;;;;;;5094456;28;20424;-76
2022/12/07 02:20:18;;;;;;;14.57;9.30;;;4.10;99.90;;;;;;5096846;28;20512;-76
2022/12/07 02:23:23;;;;;;;15.93;9.60;;;4.10;99.90;;;;;;5094283;28;20827;-77
2022/12/07 02:26:11;;;;;;;11.87;8.37;;;4.10;99.90;;;;;;5094096;28;20943;-77
2022/12/07 02:29:00;;;;;;;14.57;9.67;;;4.00;99.90;;;;;;5094505;28;20420;-76
2022/12/07 02:31:30;;;;;;;15.63;9.90;;;4.00;99.90;;;;;;5092928;28;20437;-77
2022/12/07 02:34:06;;;;;;;13.33;10.57;;;4.00;99.90;;;;;;5092802;28;20992;-76
2022/12/07 02:36:39;;;;;;;15.27;9.47;;;4.00;99.90;;;;;;5094568;28;20446;-76
2022/12/07 02:39:15;;;;;;;13.33;8.97;;;4.00;99.90;;;;;;5098099;28;20416;-76
2022/12/07 02:41:48;;;;;;;15.00;10.80;;;3.90;99.90;;;;;;5100192;28;20890;-77
2022/12/07 02:44:21;;;;;;;15.60;9.60;;;3.90;99.90;;;;;;5095657;28;20525;-77
2022/12/07 02:46:54;;;;;;;12.97;8.63;;;3.90;99.90;;;;;;5095710;28;20417;-77
2022/12/07 02:49:25;;;;;;;10.87;8.60;;;3.90;99.90;;;;;;5094639;28;20475;-77
2022/12/07 02:51:54;;;;;;;12.77;7.87;;;3.90;99.90;;;;;;5095159;28;20826;-77
2022/12/07 02:54:22;;;;;;;11.00;7.67;;;3.90;99.90;;;;;;5093691;28;20534;-77
2022/12/07 02:56:57;;;;;;;13.50;7.70;;;3.90;99.90;;;;;;5094370;28;20496;-77
2022/12/07 02:59:36;;;;;;;10.50;6.70;;;3.90;99.90;;;;;;5094034;28;20450;-78
2022/12/07 03:02:18;;;;;;;14.10;7.50;;;3.90;99.90;;;;;;5093106;28;20928;-77
2022/12/07 03:04:57;;;;;;;11.97;6.83;;;3.90;99.90;;;;;;5092636;28;20566;-77
2022/12/07 03:07:34;;;;;;;12.60;7.03;;;4.00;99.90;;;;;;5094333;28;20425;-77
2022/12/07 03:10:09;;;;;;;10.23;6.97;;;4.00;99.90;;;;;;5095481;28;20485;-77
2022/12/07 03:12:44;;;;;;;12.33;7.80;;;4.00;99.90;;;;;;5094116;28;20522;-77
2022/12/07 03:15:20;;;;;;;13.40;8.43;;;4.00;99.90;;;;;;5092291;28;20558;-77
2022/12/07 03:17:50;;;;;;;11.43;7.90;;;4.00;99.90;;;;;;5092386;28;20432;-76
2022/12/07 03:20:23;;;;;;;12.87;8.47;;;4.00;99.90;;;;;;5092461;28;20448;-77
2022/12/07 03:22:53;;;;;;;12.60;8.43;;;4.00;99.90;;;;;;5092218;28;20617;-77
2022/12/07 03:25:22;;;;;;;9.77;8.00;;;4.00;99.90;;;;;;5093685;28;20533;-76
2022/12/07 03:27:55;;;;;;;12.77;8.57;;;4.00;99.90;;;;;;5093587;28;20443;-77
2022/12/07 03:30:31;;;;;;;15.77;10.50;;;4.00;99.90;;;;;;5093880;28;20462;-77
2022/12/07 03:33:03;;;;;;;15.10;9.93;;;4.00;99.90;;;;;;5093633;28;20473;-76
2022/12/07 03:35:35;;;;;;;15.80;9.97;;;4.00;99.90;;;;;;5093530;28;20499;-76
2022/12/07 03:38:12;;;;;;;15.40;9.93;;;4.00;99.90;;;;;;5093648;28;20417;-76
2022/12/07 03:40:45;;;;;;;11.87;8.90;;;4.00;99.90;;;;;;5093389;28;20416;-76
2022/12/07 03:43:13;;;;;;;15.87;10.10;;;4.00;99.90;;;;;;5092023;28;20440;-76
2022/12/07 03:45:46;;;;;;;18.03;11.83;;;4.00;99.90;;;;;;5093259;28;21015;-76
2022/12/07 03:48:21;;;;;;;14.63;9.67;;;4.00;99.90;;;;;;5093197;28;20442;-76
2022/12/07 03:50:54;;;;;;;14.43;9.67;;;4.00;99.90;;;;;;5095098;28;20460;-76
2022/12/07 03:53:27;;;;;;;14.63;10.10;;;3.90;99.90;;;;;;5095999;28;20435;-76
2022/12/07 03:55:56;;;;;;;14.10;11.33;;;4.00;99.90;;;;;;5101811;28;20471;-76
2022/12/07 03:58:25;;;;;;;20.93;11.63;;;4.00;99.90;;;;;;5097409;28;20555;-76
2022/12/07 04:00:55;;;;;;;18.13;10.40;;;3.90;99.90;;;;;;5100678;28;20448;-76
2022/12/07 04:03:24;;;;;;;13.80;9.97;;;3.90;99.90;;;;;;5098085;28;20451;-76
2022/12/07 04:05:52;;;;;;;15.47;10.50;;;3.90;99.90;;;;;;5097145;28;20455;-76
2022/12/07 04:08:20;;;;;;;15.90;10.80;;;3.90;99.90;;;;;;5097127;28;20836;-76
2022/12/07 04:10:48;;;;;;;13.80;10.27;;;3.90;99.90;;;;;;5095667;28;20506;-76
2022/12/07 04:13:16;;;;;;;13.70;9.73;;;3.90;99.90;;;;;;5096956;28;20492;-76
2022/12/07 04:15:44;;;;;;;16.00;10.43;;;3.90;99.90;;;;;;5096923;28;20451;-76
2022/12/07 04:18:14;;;;;;;14.30;10.70;;;3.90;99.90;;;;;;5096682;28;20446;-76
2022/12/07 04:20:42;;;;;;;12.40;10.13;;;3.90;99.90;;;;;;5095411;28;20860;-76
2022/12/07 04:23:10;;;;;;;16.90;11.00;;;3.90;99.90;;;;;;5096962;28;20436;-76
2022/12/07 04:25:38;;;;;;;20.53;11.30;;;3.90;99.90;;;;;;5097704;28;20508;-76
2022/12/07 04:28:06;;;;;;;14.90;10.20;;;3.90;99.90;;;;;;5095258;28;20440;-76
2022/12/07 04:30:34;;;;;;;16.10;9.80;;;3.80;99.90;;;;;;5096927;28;20474;-76
2022/12/07 04:33:02;;;;;;;15.07;9.87;;;3.80;99.90;;;;;;5095118;28;20482;-76
2022/12/07 04:35:32;;;;;;;15.87;10.00;;;3.80;99.90;;;;;;5096371;28;20467;-76
2022/12/07 04:38:00;;;;;;;12.70;9.13;;;3.80;99.90;;;;;;5095088;28;20551;-76
2022/12/07 04:40:28;;;;;;;13.73;8.70;;;3.80;99.90;;;;;;5096314;28;20792;-76
2022/12/07 04:42:56;;;;;;;13.63;8.33;;;3.80;99.90;;;;;;5095357;28;20451;-76
2022/12/07 04:45:24;;;;;;;14.40;8.57;;;3.70;99.90;;;;;;5096189;28;20838;-76
2022/12/07 04:47:52;;;;;;;12.17;8.30;;;3.70;99.90;;;;;;5096436;28;20436;-76
2022/12/07 04:50:20;;;;;;;12.37;8.33;;;3.70;99.90;;;;;;5100967;28;20546;-76
2022/12/07 04:52:49;;;;;;;12.67;8.00;;;3.70;99.90;;;;;;5115217;28;20443;-76
2022/12/07 04:55:17;;;;;;;11.37;8.03;;;3.70;99.90;;;;;;5115111;28;20466;-76
2022/12/07 04:57:45;;;;;;;12.97;8.10;;;3.70;99.90;;;;;;5116428;28;20487;-76
2022/12/07 05:00:14;;;;;;;10.70;7.43;;;3.70;99.90;;;;;;5114976;28;20455;-77
2022/12/07 05:02:42;;;;;;;10.57;6.63;;;3.70;99.90;;;;;;5114063;28;20442;-77
2022/12/07 05:05:10;;;;;;;11.80;6.23;;;3.70;99.90;;;;;;5115071;28;20459;-76
2022/12/07 05:07:38;;;;;;;11.00;5.60;;;3.70;99.90;;;;;;5114962;28;20436;-76
2022/12/07 05:10:09;;;;;;;8.17;5.07;;;3.70;99.90;;;;;;5114840;28;20450;-76
2022/12/07 05:12:37;;;;;;;10.30;5.73;;;3.60;99.90;;;;;;5115142;28;20445;-76
2022/12/07 05:15:06;;;;;;;7.90;4.90;;;3.60;99.90;;;;;;5114720;28;20516;-76
2022/12/07 05:17:34;;;;;;;10.00;4.60;;;3.60;99.90;;;;;;5116316;27;20440;-76
2022/12/07 05:20:02;;;;;;;9.80;5.20;;;3.60;99.90;;;;;;5114686;28;20452;-76
2022/12/07 05:22:31;;;;;;;9.67;4.63;;;3.60;99.90;;;;;;5114777;28;20538;-76
2022/12/07 05:24:59;;;;;;;7.07;3.57;;;3.60;99.90;;;;;;5115754;28;20992;-76
2022/12/07 05:27:28;;;;;;;7.63;3.63;;;3.60;99.90;;;;;;5114581;28;20493;-76
2022/12/07 05:29:56;;;;;;;7.33;3.20;;;3.60;99.90;;;;;;5114478;28;20443;-76
2022/12/07 05:32:24;;;;;;;6.83;3.13;;;3.60;99.90;;;;;;5115589;28;20467;-76
2022/12/07 05:34:54;;;;;;;7.37;3.60;;;3.60;99.90;;;;;;5115624;28;20810;-76
2022/12/07 05:37:22;;;;;;;10.73;4.30;;;3.50;99.90;;;;;;5115590;28;20441;-76
2022/12/07 05:39:50;;;;;;;10.10;4.33;;;3.50;99.90;;;;;;5110041;28;20549;-76
2022/12/07 05:42:18;;;;;;;9.00;4.00;;;3.50;99.90;;;;;;5093921;28;20435;-76
2022/12/07 05:44:48;;;;;;;12.37;4.20;;;3.50;99.90;;;;;;5093805;28;20460;-77
2022/12/07 05:47:18;;;;;;;8.93;3.77;;;3.50;99.90;;;;;;5095444;28;20429;-77
2022/12/07 05:49:46;;;;;;;6.00;3.53;;;3.40;99.90;;;;;;5093976;28;20447;-77
2022/12/07 05:52:14;;;;;;;6.07;3.10;;;3.50;99.90;;;;;;5095148;28;20520;-77
2022/12/07 05:54:43;;;;;;;7.00;3.07;;;3.50;99.90;;;;;;5093687;28;20487;-77
2022/12/07 05:57:11;;;;;;;8.00;3.90;;;3.50;99.90;;;;;;5094912;28;20510;-77
2022/12/07 05:59:38;;;;;;;8.13;3.60;;;3.40;99.90;;;;;;5093515;28;20457;-77
2022/12/07 06:02:09;;;;;;;8.20;3.93;;;3.40;99.90;;;;;;5093980;28;20451;-77
2022/12/07 06:04:40;;;;;;;7.60;2.93;;;3.40;99.90;;;;;;5095025;28;20464;-77
2022/12/07 06:07:09;;;;;;;6.93;3.30;;;3.50;99.90;;;;;;5095082;28;20504;-77
2022/12/07 06:09:37;;;;;;;8.43;2.57;;;3.40;99.90;;;;;;5094901;28;20986;-77
2022/12/07 06:14:52;;;;;;;8.53;2.70;;;3.40;99.90;;;;;;5093340;28;20478;-77
2022/12/07 06:17:21;;;;;;;9.27;2.77;;;3.50;99.90;;;;;;5093452;28;20460;-77
2022/12/07 06:19:50;;;;;;;5.73;2.67;;;3.50;99.90;;;;;;5093496;28;20463;-77
2022/12/07 06:22:18;;;;;;;9.07;2.60;;;3.50;99.90;;;;;;5093421;28;20490;-77
2022/12/07 06:24:46;;;;;;;8.13;2.67;;;3.50;99.90;;;;;;5094593;28;20455;-77
2022/12/07 06:27:14;;;;;;;10.27;3.43;;;3.50;99.90;;;;;;5093108;28;20440;-77
2022/12/07 06:29:42;;;;;;;6.67;2.63;;;3.50;99.90;;;;;;5095386;28;20483;-77
2022/12/07 06:32:11;;;;;;;5.70;2.63;;;3.50;99.90;;;;;;5093035;28;20468;-77
2022/12/07 06:34:40;;;;;;;11.43;2.70;;;3.50;99.90;;;;;;5094353;28;20498;-77
2022/12/07 06:37:09;;;;;;;5.67;2.60;;;3.50;99.90;;;;;;5093575;28;20471;-77
2022/12/07 06:39:38;;;;;;;11.00;3.03;;;3.50;99.90;;;;;;5093120;28;20945;-77
2022/12/07 06:42:06;;;;;;;5.93;2.60;;;3.50;99.90;;;;;;5094561;28;20443;-77
2022/12/07 06:44:34;;;;;;;5.53;2.30;;;3.50;99.90;;;;;;5095043;28;20801;-77
2022/12/07 06:47:04;;;;;;;7.60;2.33;;;3.50;99.90;;;;;;5092995;28;20945;-77
2022/12/07 06:49:53;;;;;;;8.47;2.17;;;3.50;99.90;;;;;;5092691;28;20439;-77
2022/12/07 06:52:21;;;;;;;9.97;3.03;;;3.50;99.90;;;;;;5092507;28;20478;-77
2022/12/07 06:54:49;;;;;;;6.90;2.47;;;3.60;99.90;;;;;;5092476;28;20472;-77
2022/12/07 06:57:20;;;;;;;8.60;2.97;;;3.60;99.90;;;;;;5094090;28;20463;-77
2022/12/07 06:59:48;;;;;;;6.60;2.70;;;3.60;99.90;;;;;;5092440;28;20486;-77
2022/12/07 07:02:17;;;;;;;5.43;2.60;;;3.60;99.90;;;;;;5092430;28;20447;-77
2022/12/07 07:04:45;;;;;;;5.33;2.00;;;3.60;99.90;;;;;;5092410;28;20608;-77
2022/12/07 07:07:14;;;;;;;10.30;3.10;;;3.60;99.90;;;;;;5092379;28;20837;-77
2022/12/07 07:09:44;;;;;;;7.70;3.10;;;3.60;99.90;;;;;;5092579;28;21006;-77
2022/12/07 07:12:12;;;;;;;9.30;3.30;;;3.60;99.90;;;;;;5092290;28;20543;-77
2022/12/07 07:14:41;;;;;;;6.90;2.10;;;3.60;99.90;;;;;;5092121;28;20972;-77
2022/12/07 07:17:09;;;;;;;7.23;2.27;;;3.60;99.90;;;;;;5092238;28;20452;-77
2022/12/07 07:19:38;;;;;;;6.53;2.43;;;3.60;99.90;;;;;;5094409;28;21017;-77
2022/12/07 07:22:06;;;;;;;10.70;3.30;;;3.60;99.90;;;;;;5093585;28;20436;-77
2022/12/07 07:24:35;;;;;;;6.33;2.80;;;3.60;99.90;;;;;;5092852;28;20988;-77
2022/12/07 07:27:03;;;;;;;8.77;2.80;;;3.60;99.90;;;;;;5093374;28;20464;-77
2022/12/07 07:29:31;;;;;;;6.17;2.20;;;3.60;99.90;;;;;;5092060;28;21018;-77
2022/12/07 07:32:01;;;;;;;8.50;2.43;;;3.60;99.90;;;;;;5093624;28;20557;-77
2022/12/07 07:34:34;;;;;;;5.30;2.43;;;3.60;99.90;;;;;;5092066;28;20468;-77
2022/12/07 07:37:02;;;;;;;7.03;2.50;;;3.70;99.90;;;;;;5092089;28;20489;-77
2022/12/07 07:39:30;;;;;;;5.10;2.20;;;3.60;99.90;;;;;;5093353;28;20436;-77
2022/12/07 07:41:59;;;;;;;6.07;2.30;;;3.60;99.90;;;;;;5093194;28;20539;-77
2022/12/07 07:44:28;;;;;;;4.87;2.47;;;3.60;99.90;;;;;;5091913;28;21012;-77
2022/12/07 07:47:02;;;;;;;4.37;2.37;;;3.60;99.90;;;;;;5092034;28;20437;-77
2022/12/07 07:49:30;;;;;;;7.40;2.60;;;3.50;99.90;;;;;;5096541;28;20455;-77
2022/12/07 07:51:58;;;;;;;5.30;2.27;;;3.50;99.90;;;;;;5093373;28;20525;-77
2022/12/07 07:54:27;;;;;;;4.63;2.67;;;3.50;99.90;;;;;;5092697;28;20475;-77
2022/12/07 07:56:55;;;;;;;5.37;2.47;;;3.50;99.90;;;;;;5093176;28;20431;-77
2022/12/07 07:59:25;;;;;;;7.67;2.57;;;3.50;99.90;;;;;;5094058;28;20454;-76
2022/12/07 08:01:53;;;;;;;6.63;2.97;;;3.50;99.90;;;;;;5091828;28;20455;-77
2022/12/07 08:04:24;;;;;;;5.57;2.70;;;3.50;99.90;;;;;;5093040;28;21035;-77
2022/12/07 08:06:52;;;;;;;6.90;3.50;;;3.50;99.90;;;;;;5091951;28;20474;-77
2022/12/07 08:09:20;;;;;;;5.50;2.60;;;3.50;99.90;;;;;;5092819;28;20497;-77
2022/12/07 08:11:49;;;;;;;5.73;2.90;;;3.50;99.90;;;;;;5112055;28;20451;-77
2022/12/07 08:14:17;;;;;;;5.07;2.57;;;3.50;99.90;;;;;;5112039;28;20463;-77
2022/12/07 08:16:46;;;;;;;10.00;3.03;;;3.50;99.90;;;;;;5113667;28;20442;-77
2022/12/07 08:19:14;;;;;;;4.73;2.90;;;3.50;99.90;;;;;;5113337;28;20442;-77
2022/12/07 08:21:42;;;;;;;5.33;3.07;;;3.50;99.90;;;;;;5113245;28;20472;-77
2022/12/07 08:24:10;;;;;;;7.17;3.40;;;3.50;99.90;;;;;;5113304;28;20451;-77
2022/12/07 08:26:38;;;;;;;5.53;2.90;;;3.50;99.90;;;;;;5113151;28;20508;-77
2022/12/07 08:29:06;;;;;;;6.10;2.57;;;3.50;99.90;;;;;;5111859;28;20445;-77
2022/12/07 08:31:35;;;;;;;8.00;2.30;;;3.50;99.90;;;;;;5113434;28;20499;-77
2022/12/07 08:34:04;;;;;;;5.80;2.80;;;3.60;99.90;;;;;;5112998;28;20561;-77
2022/12/07 08:36:32;;;;;;;5.00;2.30;;;3.60;99.90;;;;;;5113436;28;20427;-77
2022/12/07 08:39:01;;;;;;;7.47;2.50;;;3.60;99.90;;;;;;5115513;28;20970;-77
2022/12/07 08:41:49;;;;;;;6.70;2.87;;;3.60;99.90;;;;;;5115447;28;20446;-77
2022/12/07 08:44:18;;;;;;;7.77;3.47;;;3.60;99.90;;;;;;5116655;28;20855;-76
2022/12/07 08:46:49;;;;;;;6.03;2.50;;;3.60;99.90;;;;;;5116648;28;20966;-77
2022/12/07 08:49:23;;;;;;;5.70;2.40;;;3.60;99.90;;;;;;5116592;28;20507;-77
2022/12/07 08:51:51;;;;;;;7.10;2.83;;;3.60;99.90;;;;;;5116841;28;20438;-77
2022/12/07 08:54:20;;;;;;;6.97;3.03;;;3.60;99.90;;;;;;5115048;28;20524;-77
2022/12/07 08:56:50;;;;;;;7.40;3.40;;;3.70;99.90;;;;;;5115083;28;20810;-76
2022/12/07 08:59:27;;;;;;;8.53;3.63;;;3.70;99.90;;;;;;5113490;28;20519;-77
2022/12/07 09:01:55;;;;;;;8.17;2.70;;;3.60;99.90;;;;;;5096157;28;20440;-76
2022/12/07 09:04:25;;;;;;;8.67;2.77;;;3.70;99.90;;;;;;5095990;28;20455;-76
2022/12/07 09:06:54;;;;;;;5.70;2.40;;;3.70;99.90;;;;;;5094728;28;20436;-77
2022/12/07 09:09:22;;;;;;;7.37;2.90;;;3.70;99.90;;;;;;5094597;28;20509;-77
2022/12/07 09:11:50;;;;;;;6.50;3.37;;;3.70;99.90;;;;;;5094715;28;20503;-77
2022/12/07 09:14:19;;;;;;;7.10;3.73;;;3.70;99.90;;;;;;5094369;28;20513;-77
2022/12/07 09:16:47;;;;;;;8.53;4.77;;;3.70;99.90;;;;;;5094546;28;20471;-77
2022/12/07 09:19:15;;;;;;;8.37;4.37;;;3.80;99.90;;;;;;5095715;28;20965;-77
2022/12/07 09:21:44;;;;;;;6.90;5.13;;;3.80;99.90;;;;;;5096010;28;20444;-76
2022/12/07 09:24:15;;;;;;;6.43;4.40;;;3.80;99.90;;;;;;5095819;28;20545;-77
2022/12/07 09:26:44;;;;;;;8.13;4.60;;;3.80;99.90;;;;;;5094586;28;20464;-77
2022/12/07 09:29:13;;;;;;;7.43;5.00;;;3.80;99.90;;;;;;5095483;28;20444;-77
2022/12/07 09:31:41;;;;;;;8.60;4.70;;;3.80;99.90;;;;;;5094120;28;20443;-77
2022/12/07 09:34:09;;;;;;;6.67;4.27;;;3.90;99.90;;;;;;5095185;28;20478;-77
2022/12/07 09:36:38;;;;;;;8.87;4.93;;;3.90;99.90;;;;;;5094058;28;20443;-77
2022/12/07 09:39:07;;;;;;;8.57;5.07;;;3.90;99.90;;;;;;5094032;28;20976;-77
2022/12/07 09:41:39;;;;;;;9.10;5.83;;;3.90;99.90;;;;;;5095490;28;20440;-76
2022/12/07 09:44:12;;;;;;;10.57;5.60;;;4.00;99.90;;;;;;5093790;28;20977;-76
2022/12/07 09:46:42;;;;;;;6.77;5.17;;;4.00;99.90;;;;;;5095507;28;20412;-76
2022/12/07 09:49:14;;;;;;;10.93;4.70;;;4.00;99.90;;;;;;5093170;28;20447;-77
2022/12/07 09:51:42;;;;;;;9.83;5.60;;;3.90;99.90;;;;;;5114057;28;20489;-77
2022/12/07 09:54:14;;;;;;;9.43;5.57;;;3.90;99.90;;;;;;5115609;28;20478;-76
2022/12/07 09:56:43;;;;;;;9.03;5.43;;;4.00;99.90;;;;;;5114094;28;20463;-76
2022/12/07 09:59:17;;;;;;;12.57;6.17;;;4.00;99.90;;;;;;5115321;28;20476;-76
2022/12/07 10:01:48;;;;;;;8.57;5.43;;;4.00;99.90;;;;;;5113833;28;20446;-77
2022/12/07 10:04:21;;;;;;;9.70;6.17;;;4.00;99.90;;;;;;5115335;28;20482;-76
2022/12/07 10:06:50;;;;;;;9.03;5.40;;;4.00;99.90;;;;;;5113768;28;20530;-76
2022/12/07 10:09:24;;;;;;;8.80;5.10;;;4.10;99.90;;;;;;5115602;28;20454;-76
2022/12/07 10:12:00;;;;;;;6.03;4.50;;;4.10;99.90;;;;;;5113764;28;20498;-76
2022/12/07 10:14:33;;;;;;;9.60;4.97;;;4.10;99.90;;;;;;5115704;28;20473;-77
2022/12/07 10:17:36;;;;;;;7.70;2.87;;;4.10;99.90;;;;;;5113562;28;20484;-77
2022/12/07 10:20:17;;;;;;;6.50;2.70;;;4.10;99.90;;;;;;5113601;28;20431;-77
2022/12/07 10:23:00;;;;;;;5.60;2.27;;;4.10;99.90;;;;;;5114848;28;20912;-76
2022/12/07 10:25:33;;;;;;;7.87;2.70;;;4.10;99.90;;;;;;5114826;28;20504;-76
2022/12/07 10:28:11;;;;;;;8.83;3.67;;;4.10;99.90;;;;;;5113523;28;20443;-76
2022/12/07 10:30:51;;;;;;;7.50;3.57;;;4.10;99.90;;;;;;5115008;28;20475;-76
2022/12/07 10:33:33;;;;;;;7.33;3.33;;;4.10;99.90;;;;;;5113263;28;20463;-76
2022/12/07 10:36:10;;;;;;;8.43;3.50;;;4.20;99.90;;;;;;5114769;28;20423;-76
2022/12/07 10:38:46;;;;;;;8.33;3.97;;;4.20;99.90;;;;;;5113203;28;20451;-76
2022/12/07 10:41:16;;;;;;;6.10;3.67;;;4.20;99.90;;;;;;5097400;28;20949;-76
2022/12/07 10:43:53;;;;;;;8.93;3.73;;;4.30;99.90;;;;;;5097875;28;20444;-76
2022/12/07 10:46:44;;;;;;;7.00;3.07;;;4.30;99.90;;;;;;5095500;28;20439;-76
2022/12/07 10:49:37;;;;;;;7.53;3.33;;;4.30;99.90;;;;;;5094517;28;20433;-76
2022/12/07 10:52:14;;;;;;;7.90;3.37;;;4.40;99.90;;;;;;5079784;28;20458;-76
2022/12/07 10:54:49;;;;;;;7.17;3.37;;;4.40;99.90;;;;;;5095585;28;20483;-76
2022/12/07 10:57:28;;;;;;;6.63;2.80;;;4.40;99.90;;;;;;5095001;28;20420;-76
2022/12/07 11:00:02;;;;;;;7.03;3.33;;;4.40;99.90;;;;;;5094776;28;20937;-76
2022/12/07 11:02:53;;;;;;;7.03;3.40;;;4.40;99.90;;;;;;5094694;28;20880;-75
2022/12/07 11:05:28;;;;;;;8.10;3.13;;;4.40;99.90;;;;;;5094142;28;20807;-76
2022/12/07 11:08:06;;;;;;;8.53;3.27;;;4.50;99.90;;;;;;5094297;28;20477;-75
2022/12/07 11:10:44;;;;;;;6.03;3.47;;;4.50;99.90;;;;;;5094311;28;20424;-76
2022/12/07 11:13:29;;;;;;;10.30;3.13;;;4.50;99.90;;;;;;5094263;28;20427;-76
2022/12/07 11:16:16;;;;;;;10.43;3.33;;;4.50;99.90;;;;;;5093970;28;20775;-76
2022/12/07 11:18:53;;;;;;;7.40;3.73;;;4.60;99.90;;;;;;5093780;28;20439;-75
2022/12/07 11:21:28;;;;;;;7.90;3.43;;;4.60;99.90;;;;;;5094333;28;20428;-75
2022/12/07 11:24:04;;;;;;;5.53;2.93;;;4.60;99.90;;;;;;5093828;28;20458;-75
2022/12/07 11:26:51;;;;;;;6.73;3.33;;;4.60;99.90;;;;;;5093781;28;20778;-75
2022/12/07 11:29:49;;;;;;;6.73;3.10;;;4.60;99.90;;;;;;5093620;28;20453;-76
2022/12/07 11:32:26;;;;;;;7.27;3.23;;;4.70;99.90;;;;;;5093245;28;20942;-75
2022/12/07 11:35:04;;;;;;;8.00;3.83;;;4.70;99.90;;;;;;5093300;28;20467;-75
2022/12/07 11:37:35;;;;;;;8.47;3.30;;;4.70;99.90;;;;;;5093606;28;20794;-76
2022/12/07 11:40:17;;;;;;;11.17;3.10;;;4.70;99.90;;;;;;5092456;28;20476;-75
2022/12/07 11:42:52;;;;;;;8.80;2.50;;;4.80;99.90;;;;;;5093316;28;20415;-76
2022/12/07 11:45:27;;;;;;;7.57;3.40;;;4.80;99.90;;;;;;5091931;28;20892;-76
2022/12/07 11:48:00;;;;;;;8.83;3.77;;;4.80;99.90;;;;;;5096194;28;20431;-75
2022/12/07 11:50:34;;;;;;;10.70;3.50;;;4.90;99.90;;;;;;5097061;28;20482;-75
2022/12/07 11:53:05;;;;;;;6.57;2.93;;;4.90;99.90;;;;;;5093484;28;20452;-75
2022/12/07 11:55:43;;;;;;;5.40;2.90;;;4.90;99.90;;;;;;5092209;28;20529;-76
2022/12/07 11:58:35;;;;;;;10.00;3.50;;;5.00;99.90;;;;;;5093322;28;20482;-75
2022/12/07 12:01:19;;;;;;;8.30;2.70;;;5.00;99.90;;;;;;5093111;28;20444;-76
2022/12/07 12:03:49;;;;;;;7.37;2.70;;;5.10;99.90;;;;;;5093493;28;20462;-76
2022/12/07 12:06:21;;;;;;;8.30;2.40;;;5.10;99.90;;;;;;5091788;28;20451;-76
2022/12/07 12:08:55;;;;;;;6.00;2.27;;;5.10;99.90;;;;;;5092957;28;20444;-76
2022/12/07 12:12:02;;;;;;;8.70;2.27;;;5.20;99.90;;;;;;5092699;28;20555;-76
2022/12/07 12:15:00;;;;;;;5.50;2.10;;;5.20;99.90;;;;;;5096701;28;20935;-76
2022/12/07 12:17:53;;;;;;;5.97;2.17;;;5.20;99.90;;;;;;5095557;28;20440;-77
2022/12/07 12:20:27;;;;;;;6.17;2.87;;;5.30;99.90;;;;;;5103389;28;20512;-77
2022/12/07 12:23:02;;;;;;;7.20;2.77;;;5.30;99.90;;;;;;5116228;28;20481;-77
2022/12/07 12:25:37;;;;;;;8.73;3.20;;;5.30;99.90;;;;;;5115832;28;20542;-77
2022/12/07 12:28:05;;;;;;;15.73;3.70;;;5.30;99.90;;;;;;5117314;27;20423;-77
2022/12/07 12:30:36;;;;;;;8.70;4.03;;;5.40;99.90;;;;;;5117251;28;20427;-77
2022/12/07 12:33:14;;;;;;;11.17;3.13;;;5.40;99.90;;;;;;5115771;28;20435;-77
2022/12/07 12:35:42;;;;;;;7.43;2.30;;;5.40;99.90;;;;;;5115492;28;20471;-77
2022/12/07 12:38:30;;;;;;;14.67;3.00;;;5.40;99.90;;;;;;5115526;28;20814;-77
2022/12/07 12:40:58;;;;;;;9.20;3.23;;;5.40;99.90;;;;;;5115496;28;20455;-77
2022/12/07 12:43:49;;;;;;;8.80;3.07;;;5.40;99.90;;;;;;5115468;28;20439;-76
2022/12/07 12:46:51;;;;;;;12.43;3.30;;;5.40;99.90;;;;;;5115422;28;20479;-76
2022/12/07 12:49:44;;;;;;;7.80;2.53;;;5.40;99.90;;;;;;5116679;28;20510;-76
2022/12/07 12:52:53;;;;;;;7.73;2.67;;;5.40;99.90;;;;;;5111904;28;20815;-76
2022/12/07 12:56:11;;;;;;;7.47;2.50;;;5.40;99.90;;;;;;5106833;28;20509;-77
2022/12/07 12:58:45;;;;;;;7.57;2.80;;;5.50;99.90;;;;;;5115186;28;20447;-77
2022/12/07 13:01:40;;;;;;;5.47;2.43;;;5.50;99.90;;;;;;5116440;28;20427;-77
2022/12/07 13:04:52;;;;;;;5.37;2.47;;;5.50;99.90;;;;;;5116693;28;20512;-77
2022/12/07 13:07:55;;;;;;;7.17;2.67;;;5.50;99.90;;;;;;5116331;28;20416;-77
2022/12/07 13:10:43;;;;;;;6.87;2.70;;;5.60;99.90;;;;;;5106991;28;20953;-77
2022/12/07 13:13:33;;;;;;;7.00;2.37;;;5.60;99.90;;;;;;5094574;28;20945;-77
2022/12/07 13:16:39;;;;;;;6.53;3.40;;;5.60;99.90;;;;;;5096249;28;20456;-78
2022/12/07 13:20:02;;;;;;;6.73;3.07;;;5.60;99.90;;;;;;5093834;28;20510;-78
2022/12/07 13:22:59;;;;;;;8.40;3.20;;;5.60;99.90;;;;;;5094391;28;20436;-78
2022/12/07 13:25:38;;;;;;;7.43;2.60;;;5.70;99.90;;;;;;5096074;28;20545;-78